Terminal Aerodrome Forecast
Issued by NWS Central Illinois

Home | Current Version | Previous Version | Text Only | Print | Product List | Glossary On
Versions: 1 2 3 4 5 6 7 8 9 10 11 12 13 14 15 16 17 18
000
FTUS43 KILX 200500
TAFPIA
TAF
KPIA 200525Z 2006/2106 VRB03KT P6SM SKC
     FM200800 VRB03KT 4SM BR SKC
      TEMPO 2009/2012 2SM BR
     FM201400 24006KT P6SM SCT035 BKN150
     FM202300 19003KT P6SM VCTS SCT035CB BKN150=

USA.gov is the U.S. government's official web portal to all federal, state and local government web resources and services.